sensor_id;sensor_type;location;lat;lon;timestamp;pressure;altitude;pressure_sealevel;temperature;humidity
71621;BME280;59471;42.254;23.102;2023-02-04T00:01:22;95892.63;;;-0.21;79.88
71621;BME280;59471;42.254;23.102;2023-02-04T00:03:47;95907.72;;;0.08;79.65
71621;BME280;59471;42.254;23.102;2023-02-04T00:06:13;95909.03;;;0.13;79.71
71621;BME280;59471;42.254;23.102;2023-02-04T00:08:38;95905.34;;;0.29;79.43
71621;BME280;59471;42.254;23.102;2023-02-04T00:11:04;95906.38;;;-0.09;80.29
71621;BME280;59471;42.254;23.102;2023-02-04T00:13:29;95901.34;;;-0.11;80.65
71621;BME280;59471;42.254;23.102;2023-02-04T00:15:55;95896.25;;;0.01;80.65
71621;BME280;59471;42.254;23.102;2023-02-04T00:18:21;95903.19;;;0.11;81.01
71621;BME280;59471;42.254;23.102;2023-02-04T00:20:46;95896.75;;;-0.18;81.29
71621;BME280;59471;42.254;23.102;2023-02-04T00:23:12;95882.56;;;0.11;78.77
71621;BME280;59471;42.254;23.102;2023-02-04T00:25:37;95881.19;;;-0.41;77.00
71621;BME280;59471;42.254;23.102;2023-02-04T00:28:03;95880.19;;;-0.51;78.80
71621;BME280;59471;42.254;23.102;2023-02-04T00:30:30;95872.97;;;-0.46;78.54
71621;BME280;59471;42.254;23.102;2023-02-04T00:32:56;95870.56;;;-0.36;80.87
71621;BME280;59471;42.254;23.102;2023-02-04T00:35:22;95867.72;;;-0.20;78.03
71621;BME280;59471;42.254;23.102;2023-02-04T00:37:48;95875.13;;;-0.77;82.55
71621;BME280;59471;42.254;23.102;2023-02-04T00:40:14;95869.28;;;-0.91;80.37
71621;BME280;59471;42.254;23.102;2023-02-04T00:42:40;95866.50;;;-0.88;80.17
71621;BME280;59471;42.254;23.102;2023-02-04T00:45:06;95863.34;;;-0.92;80.96
71621;BME280;59471;42.254;23.102;2023-02-04T00:47:31;95861.56;;;-0.79;80.83
71621;BME280;59471;42.254;23.102;2023-02-04T00:49:57;95861.41;;;-0.64;79.96
71621;BME280;59471;42.254;23.102;2023-02-04T00:52:23;95859.84;;;-0.91;81.33
71621;BME280;59471;42.254;23.102;2023-02-04T00:54:48;95840.59;;;-0.85;81.43
71621;BME280;59471;42.254;23.102;2023-02-04T00:57:14;95851.03;;;-0.63;80.84
71621;BME280;59471;42.254;23.102;2023-02-04T00:59:39;95837.41;;;-0.52;79.78
71621;BME280;59471;42.254;23.102;2023-02-04T01:02:05;95842.97;;;-0.58;79.52
71621;BME280;59471;42.254;23.102;2023-02-04T01:04:31;95844.00;;;-0.85;80.40
71621;BME280;59471;42.254;23.102;2023-02-04T01:06:56;95839.38;;;-0.93;81.02
71621;BME280;59471;42.254;23.102;2023-02-04T01:09:22;95837.28;;;-0.75;81.34
71621;BME280;59471;42.254;23.102;2023-02-04T01:11:48;95836.50;;;-0.88;81.59
71621;BME280;59471;42.254;23.102;2023-02-04T01:14:14;95842.03;;;-1.31;83.00
71621;BME280;59471;42.254;23.102;2023-02-04T01:16:39;95842.97;;;-1.32;83.20
71621;BME280;59471;42.254;23.102;2023-02-04T01:19:05;95831.94;;;-1.21;83.83
71621;BME280;59471;42.254;23.102;2023-02-04T01:21:31;95831.50;;;-1.02;83.01
71621;BME280;59471;42.254;23.102;2023-02-04T01:23:56;95824.13;;;-1.20;83.97
71621;BME280;59471;42.254;23.102;2023-02-04T01:26:22;95825.41;;;-1.01;83.91
71621;BME280;59471;42.254;23.102;2023-02-04T01:28:48;95819.97;;;-0.73;83.60
71621;BME280;59471;42.254;23.102;2023-02-04T01:31:14;95814.81;;;-0.73;83.18
71621;BME280;59471;42.254;23.102;2023-02-04T01:33:40;95809.13;;;-0.89;83.32
71621;BME280;59471;42.254;23.102;2023-02-04T01:36:06;95802.63;;;-1.06;83.56
71621;BME280;59471;42.254;23.102;2023-02-04T01:38:32;95801.44;;;-1.26;84.75
71621;BME280;59471;42.254;23.102;2023-02-04T01:40:58;95799.72;;;-1.01;84.26
71621;BME280;59471;42.254;23.102;2023-02-04T01:43:25;95795.84;;;-0.83;83.61
71621;BME280;59471;42.254;23.102;2023-02-04T01:45:51;95788.72;;;-0.79;84.03
71621;BME280;59471;42.254;23.102;2023-02-04T01:48:19;95795.50;;;-1.02;85.14
71621;BME280;59471;42.254;23.102;2023-02-04T01:50:52;95782.38;;;-0.86;84.95
71621;BME280;59471;42.254;23.102;2023-02-04T01:53:23;95781.47;;;-0.61;84.79
71621;BME280;59471;42.254;23.102;2023-02-04T01:55:50;95769.75;;;-0.65;84.54
71621;BME280;59471;42.254;23.102;2023-02-04T01:58:17;95787.38;;;-0.96;85.71
71621;BME280;59471;42.254;23.102;2023-02-04T02:00:43;95777.50;;;-1.02;86.36
71621;BME280;59471;42.254;23.102;2023-02-04T02:03:09;95770.22;;;-1.45;87.76
71621;BME280;59471;42.254;23.102;2023-02-04T02:05:39;95766.72;;;-1.31;88.29
71621;BME280;59471;42.254;23.102;2023-02-04T02:08:07;95757.75;;;-1.02;86.95
71621;BME280;59471;42.254;23.102;2023-02-04T02:10:34;95760.75;;;-1.08;87.15
71621;BME280;59471;42.254;23.102;2023-02-04T02:13:02;95754.56;;;-1.17;87.53
71621;BME280;59471;42.254;23.102;2023-02-04T02:15:28;95757.00;;;-1.15;88.21
71621;BME280;59471;42.254;23.102;2023-02-04T02:17:54;95757.47;;;-1.34;89.26
71621;BME280;59471;42.254;23.102;2023-02-04T02:20:22;95748.63;;;-1.06;88.43
71621;BME280;59471;42.254;23.102;2023-02-04T02:23:23;95744.97;;;-1.51;90.51
71621;BME280;59471;42.254;23.102;2023-02-04T02:25:57;95747.19;;;-1.34;90.66
71621;BME280;59471;42.254;23.102;2023-02-04T02:28:23;95746.44;;;-0.99;88.97
71621;BME280;59471;42.254;23.102;2023-02-04T02:30:49;95742.59;;;-1.18;89.13
71621;BME280;59471;42.254;23.102;2023-02-04T02:33:16;95743.47;;;-1.30;89.77
71621;BME280;59471;42.254;23.102;2023-02-04T02:35:45;95749.19;;;-1.13;90.15
71621;BME280;59471;42.254;23.102;2023-02-04T02:38:15;95747.22;;;-0.86;89.40
71621;BME280;59471;42.254;23.102;2023-02-04T02:40:43;95728.00;;;-1.17;89.48
71621;BME280;59471;42.254;23.102;2023-02-04T02:43:13;95731.25;;;-0.78;89.11
71621;BME280;59471;42.254;23.102;2023-02-04T02:45:40;95728.25;;;-0.72;87.69
71621;BME280;59471;42.254;23.102;2023-02-04T02:48:07;95721.56;;;-1.23;90.41
71621;BME280;59471;42.254;23.102;2023-02-04T02:50:35;95708.28;;;-1.17;91.39
71621;BME280;59471;42.254;23.102;2023-02-04T02:53:01;95706.19;;;-1.11;92.26
71621;BME280;59471;42.254;23.102;2023-02-04T02:55:29;95698.72;;;-1.14;91.95
71621;BME280;59471;42.254;23.102;2023-02-04T02:57:55;95696.06;;;-0.78;90.62
71621;BME280;59471;42.254;23.102;2023-02-04T03:00:30;95693.88;;;-0.95;91.79
71621;BME280;59471;42.254;23.102;2023-02-04T03:05:35;95701.81;;;-0.98;91.19
71621;BME280;59471;42.254;23.102;2023-02-04T03:08:05;95683.88;;;-0.87;91.49
71621;BME280;59471;42.254;23.102;2023-02-04T03:10:31;95672.72;;;-0.75;89.94
71621;BME280;59471;42.254;23.102;2023-02-04T03:12:58;95657.00;;;-0.94;90.31
71621;BME280;59471;42.254;23.102;2023-02-04T03:15:24;95665.00;;;-0.75;90.24
71621;BME280;59471;42.254;23.102;2023-02-04T03:17:49;95664.81;;;-1.20;91.93
71621;BME280;59471;42.254;23.102;2023-02-04T03:20:21;95669.50;;;-1.37;93.96
71621;BME280;59471;42.254;23.102;2023-02-04T03:22:48;95665.91;;;-1.35;94.65
71621;BME280;59471;42.254;23.102;2023-02-04T03:25:14;95654.72;;;-1.10;93.91
71621;BME280;59471;42.254;23.102;2023-02-04T03:27:40;95649.16;;;-0.93;93.17
71621;BME280;59471;42.254;23.102;2023-02-04T03:30:06;95650.63;;;-1.01;92.84
71621;BME280;59471;42.254;23.102;2023-02-04T03:32:33;95649.19;;;-1.41;95.54
71621;BME280;59471;42.254;23.102;2023-02-04T03:34:59;95650.50;;;-1.35;95.73
71621;BME280;59471;42.254;23.102;2023-02-04T03:37:24;95642.00;;;-1.00;94.91
71621;BME280;59471;42.254;23.102;2023-02-04T03:39:50;95643.72;;;-0.77;93.64
71621;BME280;59471;42.254;23.102;2023-02-04T03:42:16;95637.88;;;-0.67;92.80
71621;BME280;59471;42.254;23.102;2023-02-04T03:44:42;95636.63;;;-0.51;92.07
71621;BME280;59471;42.254;23.102;2023-02-04T03:47:08;95632.78;;;-0.45;92.10
71621;BME280;59471;42.254;23.102;2023-02-04T03:49:33;95637.94;;;-0.45;90.94
71621;BME280;59471;42.254;23.102;2023-02-04T03:52:00;95640.25;;;-1.00;94.16
71621;BME280;59471;42.254;23.102;2023-02-04T03:54:26;95642.53;;;-0.84;94.27
71621;BME280;59471;42.254;23.102;2023-02-04T03:56:52;95645.75;;;-0.58;92.88
71621;BME280;59471;42.254;23.102;2023-02-04T03:59:18;95635.34;;;-0.45;92.56
71621;BME280;59471;42.254;23.102;2023-02-04T04:01:43;95639.75;;;-0.70;93.02
71621;BME280;59471;42.254;23.102;2023-02-04T04:04:09;95634.13;;;-0.75;93.49
71621;BME280;59471;42.254;23.102;2023-02-04T04:06:34;95621.09;;;-0.49;92.41
71621;BME280;59471;42.254;23.102;2023-02-04T04:09:00;95604.94;;;-0.29;91.98
71621;BME280;59471;42.254;23.102;2023-02-04T04:11:25;95612.22;;;-0.22;91.14
71621;BME280;59471;42.254;23.102;2023-02-04T04:13:51;95616.44;;;-0.44;91.22
71621;BME280;59471;42.254;23.102;2023-02-04T04:16:16;95608.94;;;-0.47;92.09
71621;BME280;59471;42.254;23.102;2023-02-04T04:18:42;95604.47;;;-0.22;90.93
71621;BME280;59471;42.254;23.102;2023-02-04T04:21:07;95590.91;;;-0.13;90.77
71621;BME280;59471;42.254;23.102;2023-02-04T04:23:33;95599.59;;;-0.14;90.55
71621;BME280;59471;42.254;23.102;2023-02-04T04:25:59;95598.53;;;-0.12;90.99
71621;BME280;59471;42.254;23.102;2023-02-04T04:28:24;95596.78;;;-0.11;90.33
71621;BME280;59471;42.254;23.102;2023-02-04T04:30:50;95599.13;;;-0.31;89.89
71621;BME280;59471;42.254;23.102;2023-02-04T04:33:15;95614.03;;;-0.70;90.81
71621;BME280;59471;42.254;23.102;2023-02-04T04:35:41;95598.88;;;-0.50;90.94
71621;BME280;59471;42.254;23.102;2023-02-04T04:38:06;95594.91;;;-0.20;89.63
71621;BME280;59471;42.254;23.102;2023-02-04T04:40:32;95593.28;;;-0.21;89.80
71621;BME280;59471;42.254;23.102;2023-02-04T04:42:57;95596.31;;;-0.16;89.46
71621;BME280;59471;42.254;23.102;2023-02-04T04:45:23;95595.25;;;-0.14;88.57
71621;BME280;59471;42.254;23.102;2023-02-04T04:47:48;95604.72;;;-0.26;88.44
71621;BME280;59471;42.254;23.102;2023-02-04T04:50:14;95608.94;;;-0.36;88.52
71621;BME280;59471;42.254;23.102;2023-02-04T04:52:40;95610.56;;;-0.46;88.97
71621;BME280;59471;42.254;23.102;2023-02-04T04:55:06;95609.41;;;-0.31;88.83
71621;BME280;59471;42.254;23.102;2023-02-04T04:57:33;95607.19;;;-0.35;88.71
71621;BME280;59471;42.254;23.102;2023-02-04T04:59:58;95603.78;;;-0.36;89.09
71621;BME280;59471;42.254;23.102;2023-02-04T05:02:24;95611.41;;;-0.23;88.86
71621;BME280;59471;42.254;23.102;2023-02-04T05:04:49;95618.66;;;-0.86;91.73
71621;BME280;59471;42.254;23.102;2023-02-04T05:07:15;95620.38;;;-0.62;90.92
71621;BME280;59471;42.254;23.102;2023-02-04T05:09:40;95612.09;;;-0.32;90.48
71621;BME280;59471;42.254;23.102;2023-02-04T05:12:06;95623.91;;;-0.41;89.87
71621;BME280;59471;42.254;23.102;2023-02-04T05:14:32;95622.50;;;-0.45;91.23
71621;BME280;59471;42.254;23.102;2023-02-04T05:16:57;95623.44;;;-0.35;90.42
71621;BME280;59471;42.254;23.102;2023-02-04T05:19:23;95629.88;;;-0.07;90.02
71621;BME280;59471;42.254;23.102;2023-02-04T05:21:48;95631.16;;;-0.01;89.52
71621;BME280;59471;42.254;23.102;2023-02-04T05:24:14;95624.84;;;0.14;88.35
71621;BME280;59471;42.254;23.102;2023-02-04T05:26:39;95628.09;;;0.28;87.57
71621;BME280;59471;42.254;23.102;2023-02-04T05:29:05;95637.00;;;0.35;87.30
71621;BME280;59471;42.254;23.102;2023-02-04T05:31:31;95635.59;;;0.31;88.01
71621;BME280;59471;42.254;23.102;2023-02-04T05:33:56;95637.09;;;0.22;88.93
71621;BME280;59471;42.254;23.102;2023-02-04T05:36:22;95646.34;;;0.25;89.38
71621;BME280;59471;42.254;23.102;2023-02-04T05:38:47;95643.56;;;0.28;89.35
71621;BME280;59471;42.254;23.102;2023-02-04T05:41:13;95637.25;;;0.32;90.16
71621;BME280;59471;42.254;23.102;2023-02-04T05:43:38;95648.03;;;0.26;90.15
71621;BME280;59471;42.254;23.102;2023-02-04T05:46:04;95642.25;;;0.33;89.93
71621;BME280;59471;42.254;23.102;2023-02-04T05:48:30;95655.47;;;0.40;89.90
71621;BME280;59471;42.254;23.102;2023-02-04T05:50:55;95662.06;;;-0.24;93.71
71621;BME280;59471;42.254;23.102;2023-02-04T05:53:21;95654.00;;;-0.08;93.38
71621;BME280;59471;42.254;23.102;2023-02-04T05:55:46;95656.19;;;-0.37;94.34
71621;BME280;59471;42.254;23.102;2023-02-04T05:58:12;95673.44;;;-0.97;98.63
71621;BME280;59471;42.254;23.102;2023-02-04T06:00:37;95672.34;;;-1.05;100.00
71621;BME280;59471;42.254;23.102;2023-02-04T06:03:03;95670.38;;;-0.66;100.00
71621;BME280;59471;42.254;23.102;2023-02-04T06:05:29;95677.41;;;-0.68;98.34
71621;BME280;59471;42.254;23.102;2023-02-04T06:07:54;95671.34;;;-0.56;98.20
71621;BME280;59471;42.254;23.102;2023-02-04T06:10:20;95674.19;;;-0.37;97.26
71621;BME280;59471;42.254;23.102;2023-02-04T06:12:46;95663.34;;;-0.18;96.12
71621;BME280;59471;42.254;23.102;2023-02-04T06:15:12;95668.63;;;-0.08;94.68
71621;BME280;59471;42.254;23.102;2023-02-04T06:17:38;95678.19;;;0.12;93.50
71621;BME280;59471;42.254;23.102;2023-02-04T06:20:04;95676.09;;;-0.05;95.03
71621;BME280;59471;42.254;23.102;2023-02-04T06:22:31;95676.91;;;0.18;93.26
71621;BME280;59471;42.254;23.102;2023-02-04T06:24:56;95682.66;;;0.21;92.44
71621;BME280;59471;42.254;23.102;2023-02-04T06:27:22;95676.34;;;0.14;92.09
71621;BME280;59471;42.254;23.102;2023-02-04T06:29:51;95682.53;;;0.12;93.05
71621;BME280;59471;42.254;23.102;2023-02-04T06:32:18;95683.81;;;0.06;93.11
71621;BME280;59471;42.254;23.102;2023-02-04T06:34:44;95684.66;;;0.07;93.18
71621;BME280;59471;42.254;23.102;2023-02-04T06:37:11;95682.41;;;0.25;92.63
71621;BME280;59471;42.254;23.102;2023-02-04T06:39:37;95679.47;;;0.52;92.17
71621;BME280;59471;42.254;23.102;2023-02-04T06:42:04;95678.53;;;0.64;91.38
71621;BME280;59471;42.254;23.102;2023-02-04T06:44:30;95665.41;;;0.56;91.62
71621;BME280;59471;42.254;23.102;2023-02-04T06:46:55;95660.81;;;0.59;91.44
71621;BME280;59471;42.254;23.102;2023-02-04T06:49:21;95667.19;;;0.21;92.46
71621;BME280;59471;42.254;23.102;2023-02-04T06:51:49;95665.91;;;0.27;93.01
71621;BME280;59471;42.254;23.102;2023-02-04T06:54:15;95665.78;;;0.51;91.61
71621;BME280;59471;42.254;23.102;2023-02-04T06:56:41;95660.63;;;0.51;91.72
71621;BME280;59471;42.254;23.102;2023-02-04T06:59:08;95654.03;;;0.69;90.99
71621;BME280;59471;42.254;23.102;2023-02-04T07:01:34;95651.94;;;0.52;91.24
71621;BME280;59471;42.254;23.102;2023-02-04T07:03:59;95644.47;;;0.49;90.96
71621;BME280;59471;42.254;23.102;2023-02-04T07:06:25;95645.16;;;0.40;90.90
71621;BME280;59471;42.254;23.102;2023-02-04T07:08:50;95645.69;;;0.66;91.00
71621;BME280;59471;42.254;23.102;2023-02-04T07:11:16;95635.63;;;0.63;90.49
71621;BME280;59471;42.254;23.102;2023-02-04T07:13:41;95641.38;;;0.66;90.06
71621;BME280;59471;42.254;23.102;2023-02-04T07:16:07;95643.34;;;0.19;92.87
71621;BME280;59471;42.254;23.102;2023-02-04T07:18:32;95636.56;;;0.07;95.52
71621;BME280;59471;42.254;23.102;2023-02-04T07:20:58;95635.78;;;0.50;93.00
71621;BME280;59471;42.254;23.102;2023-02-04T07:23:24;95628.66;;;0.42;92.34
71621;BME280;59471;42.254;23.102;2023-02-04T07:25:50;95623.38;;;0.44;92.24
71621;BME280;59471;42.254;23.102;2023-02-04T07:28:18;95633.19;;;0.61;91.66
71621;BME280;59471;42.254;23.102;2023-02-04T07:30:44;95626.31;;;0.83;90.92
71621;BME280;59471;42.254;23.102;2023-02-04T07:33:10;95614.19;;;0.95;90.64
71621;BME280;59471;42.254;23.102;2023-02-04T07:35:36;95618.34;;;1.07;90.14
71621;BME280;59471;42.254;23.102;2023-02-04T07:38:05;95627.69;;;1.19;89.21
71621;BME280;59471;42.254;23.102;2023-02-04T07:40:31;95622.78;;;1.16;89.38
71621;BME280;59471;42.254;23.102;2023-02-04T07:42:57;95621.28;;;1.34;88.15
71621;BME280;59471;42.254;23.102;2023-02-04T07:45:22;95621.25;;;1.13;88.76
71621;BME280;59471;42.254;23.102;2023-02-04T07:47:48;95620.44;;;0.92;89.98
71621;BME280;59471;42.254;23.102;2023-02-04T07:50:14;95611.63;;;1.15;89.35
71621;BME280;59471;42.254;23.102;2023-02-04T07:52:40;95616.72;;;1.06;89.91
71621;BME280;59471;42.254;23.102;2023-02-04T07:55:06;95605.59;;;1.05;89.89
71621;BME280;59471;42.254;23.102;2023-02-04T07:57:33;95607.09;;;1.29;89.17
71621;BME280;59471;42.254;23.102;2023-02-04T07:59:58;95612.25;;;0.87;89.79
71621;BME280;59471;42.254;23.102;2023-02-04T08:02:24;95614.56;;;0.90;91.09
71621;BME280;59471;42.254;23.102;2023-02-04T08:04:50;95610.63;;;0.86;90.63
71621;BME280;59471;42.254;23.102;2023-02-04T08:07:15;95608.97;;;0.85;89.93
71621;BME280;59471;42.254;23.102;2023-02-04T08:09:41;95618.84;;;0.25;93.84
71621;BME280;59471;42.254;23.102;2023-02-04T08:12:06;95629.19;;;0.68;92.71
71621;BME280;59471;42.254;23.102;2023-02-04T08:14:32;95625.59;;;0.92;91.48
71621;BME280;59471;42.254;23.102;2023-02-04T08:16:57;95634.66;;;0.75;91.22
71621;BME280;59471;42.254;23.102;2023-02-04T08:19:23;95634.09;;;0.72;92.34
71621;BME280;59471;42.254;23.102;2023-02-04T08:21:49;95642.13;;;0.46;93.78
71621;BME280;59471;42.254;23.102;2023-02-04T08:24:15;95634.44;;;0.35;95.47
71621;BME280;59471;42.254;23.102;2023-02-04T08:26:41;95637.44;;;0.51;94.55
71621;BME280;59471;42.254;23.102;2023-02-04T08:29:08;95634.06;;;0.83;93.63
71621;BME280;59471;42.254;23.102;2023-02-04T08:31:34;95626.31;;;0.83;92.54
71621;BME280;59471;42.254;23.102;2023-02-04T08:34:02;95631.72;;;0.80;93.09
71621;BME280;59471;42.254;23.102;2023-02-04T08:36:28;95629.84;;;1.14;92.03
71621;BME280;59471;42.254;23.102;2023-02-04T08:38:53;95632.09;;;0.32;94.84
71621;BME280;59471;42.254;23.102;2023-02-04T08:41:19;95625.06;;;0.11;97.30
71621;BME280;59471;42.254;23.102;2023-02-04T08:43:44;95629.25;;;0.46;97.64
71621;BME280;59471;42.254;23.102;2023-02-04T08:46:10;95625.31;;;0.08;98.09
71621;BME280;59471;42.254;23.102;2023-02-04T08:48:35;95629.47;;;0.43;97.98
71621;BME280;59471;42.254;23.102;2023-02-04T08:51:02;95629.09;;;0.91;96.47
71621;BME280;59471;42.254;23.102;2023-02-04T08:53:28;95631.16;;;1.08;94.52
71621;BME280;59471;42.254;23.102;2023-02-04T08:55:53;95632.53;;;1.12;92.94
71621;BME280;59471;42.254;23.102;2023-02-04T08:58:19;95620.09;;;1.18;92.31
71621;BME280;59471;42.254;23.102;2023-02-04T09:00:44;95620.44;;;1.13;92.01
71621;BME280;59471;42.254;23.102;2023-02-04T09:03:10;95629.28;;;1.10;93.82
71621;BME280;59471;42.254;23.102;2023-02-04T09:05:35;95624.66;;;1.35;92.38
71621;BME280;59471;42.254;23.102;2023-02-04T09:08:01;95632.72;;;1.42;90.98
71621;BME280;59471;42.254;23.102;2023-02-04T09:10:26;95621.41;;;1.33;91.16
71621;BME280;59471;42.254;23.102;2023-02-04T09:12:52;95620.81;;;1.50;90.56
71621;BME280;59471;42.254;23.102;2023-02-04T09:15:21;95622.84;;;1.47;89.79
71621;BME280;59471;42.254;23.102;2023-02-04T09:17:48;95626.16;;;0.63;93.83
71621;BME280;59471;42.254;23.102;2023-02-04T09:20:14;95625.47;;;0.50;95.98
71621;BME280;59471;42.254;23.102;2023-02-04T09:22:40;95623.94;;;0.91;94.62
71621;BME280;59471;42.254;23.102;2023-02-04T09:25:06;95614.97;;;1.06;93.78
71621;BME280;59471;42.254;23.102;2023-02-04T09:27:32;95619.50;;;0.82;94.59
71621;BME280;59471;42.254;23.102;2023-02-04T09:29:58;95620.00;;;0.76;95.46
71621;BME280;59471;42.254;23.102;2023-02-04T09:32:23;95612.22;;;1.19;93.81
71621;BME280;59471;42.254;23.102;2023-02-04T09:34:49;95603.47;;;1.10;93.84
71621;BME280;59471;42.254;23.102;2023-02-04T09:37:14;95605.94;;;0.80;95.33
71621;BME280;59471;42.254;23.102;2023-02-04T09:39:40;95595.16;;;0.86;94.93
71621;BME280;59471;42.254;23.102;2023-02-04T09:42:05;95597.44;;;0.68;96.21
71621;BME280;59471;42.254;23.102;2023-02-04T09:44:31;95598.81;;;0.72;96.69
71621;BME280;59471;42.254;23.102;2023-02-04T09:46:58;95593.31;;;0.77;97.13
71621;BME280;59471;42.254;23.102;2023-02-04T09:49:26;95586.16;;;0.80;95.61
71621;BME280;59471;42.254;23.102;2023-02-04T09:51:52;95589.59;;;0.69;97.42
71621;BME280;59471;42.254;23.102;2023-02-04T09:54:20;95586.06;;;0.71;97.70
71621;BME280;59471;42.254;23.102;2023-02-04T09:56:47;95585.59;;;0.65;98.18
71621;BME280;59471;42.254;23.102;2023-02-04T09:59:15;95577.78;;;0.88;98.41
71621;BME280;59471;42.254;23.102;2023-02-04T10:02:01;95576.03;;;1.09;95.93
71621;BME280;59471;42.254;23.102;2023-02-04T10:04:27;95568.63;;;0.95;95.99
71621;BME280;59471;42.254;23.102;2023-02-04T10:06:54;95566.97;;;1.36;95.13
71621;BME280;59471;42.254;23.102;2023-02-04T10:09:22;95562.53;;;1.48;94.00
71621;BME280;59471;42.254;23.102;2023-02-04T10:11:48;95555.03;;;0.93;96.68
71621;BME280;59471;42.254;23.102;2023-02-04T10:14:16;95556.75;;;0.72;98.41
71621;BME280;59471;42.254;23.102;2023-02-04T10:16:51;95544.09;;;0.80;99.18
71621;BME280;59471;42.254;23.102;2023-02-04T10:19:19;95546.03;;;1.08;97.86
71621;BME280;59471;42.254;23.102;2023-02-04T10:21:46;95541.03;;;1.37;96.84
71621;BME280;59471;42.254;23.102;2023-02-04T10:24:20;95537.13;;;1.43;96.58
71621;BME280;59471;42.254;23.102;2023-02-04T10:26:50;95538.44;;;1.58;96.35
71621;BME280;59471;42.254;23.102;2023-02-04T10:29:19;95528.91;;;1.28;97.53
71621;BME280;59471;42.254;23.102;2023-02-04T10:31:49;95528.59;;;1.22;97.77
71621;BME280;59471;42.254;23.102;2023-02-04T10:34:37;95532.22;;;1.71;96.92
71621;BME280;59471;42.254;23.102;2023-02-04T10:37:30;95533.28;;;2.08;94.38
71621;BME280;59471;42.254;23.102;2023-02-04T10:39:56;95526.97;;;1.92;94.89
71621;BME280;59471;42.254;23.102;2023-02-04T10:42:24;95525.28;;;2.12;94.25
71621;BME280;59471;42.254;23.102;2023-02-04T10:44:51;95515.09;;;2.39;93.84
71621;BME280;59471;42.254;23.102;2023-02-04T10:47:25;95509.63;;;2.13;93.04
71621;BME280;59471;42.254;23.102;2023-02-04T10:50:05;95511.31;;;2.43;92.66
71621;BME280;59471;42.254;23.102;2023-02-04T10:52:50;95515.09;;;2.39;92.41
71621;BME280;59471;42.254;23.102;2023-02-04T10:55:19;95507.75;;;2.64;91.31
71621;BME280;59471;42.254;23.102;2023-02-04T10:57:47;95499.59;;;2.78;91.04
71621;BME280;59471;42.254;23.102;2023-02-04T11:00:17;95496.06;;;2.79;91.72
71621;BME280;59471;42.254;23.102;2023-02-04T11:02:58;95491.41;;;2.92;90.94
71621;BME280;59471;42.254;23.102;2023-02-04T11:05:30;95488.78;;;3.12;90.51
71621;BME280;59471;42.254;23.102;2023-02-04T11:07:57;95487.06;;;2.83;92.05
71621;BME280;59471;42.254;23.102;2023-02-04T11:10:29;95482.44;;;2.96;91.58
71621;BME280;59471;42.254;23.102;2023-02-04T11:20:45;95478.94;;;2.68;93.37
71621;BME280;59471;42.254;23.102;2023-02-04T11:26:13;95477.81;;;2.71;94.43
71621;BME280;59471;42.254;23.102;2023-02-04T11:39:27;95464.78;;;3.19;92.18
71621;BME280;59471;42.254;23.102;2023-02-04T11:41:58;95460.63;;;2.99;92.44
71621;BME280;59471;42.254;23.102;2023-02-04T11:44:24;95462.28;;;3.00;93.99
71621;BME280;59471;42.254;23.102;2023-02-04T11:46:51;95456.75;;;3.22;93.00
71621;BME280;59471;42.254;23.102;2023-02-04T11:49:22;95453.44;;;3.30;93.46
71621;BME280;59471;42.254;23.102;2023-02-04T11:51:49;95456.31;;;2.80;95.46
71621;BME280;59471;42.254;23.102;2023-02-04T11:54:17;95446.03;;;3.08;95.63
71621;BME280;59471;42.254;23.102;2023-02-04T11:56:46;95435.53;;;3.19;93.50
71621;BME280;59471;42.254;23.102;2023-02-04T11:59:13;95441.25;;;3.13;93.49
71621;BME280;59471;42.254;23.102;2023-02-04T12:01:39;95430.63;;;3.43;92.71
71621;BME280;59471;42.254;23.102;2023-02-04T12:04:07;95437.34;;;3.36;92.16
71621;BME280;59471;42.254;23.102;2023-02-04T12:07:00;95434.09;;;3.34;93.75
71621;BME280;59471;42.254;23.102;2023-02-04T12:09:30;95427.91;;;3.08;93.62
71621;BME280;59471;42.254;23.102;2023-02-04T12:14:36;95417.69;;;2.69;97.52
71621;BME280;59471;42.254;23.102;2023-02-04T12:17:15;95418.34;;;2.71;98.22
71621;BME280;59471;42.254;23.102;2023-02-04T12:19:42;95416.03;;;2.68;99.10
71621;BME280;59471;42.254;23.102;2023-02-04T12:22:07;95413.41;;;2.97;98.29
71621;BME280;59471;42.254;23.102;2023-02-04T12:24:34;95411.91;;;3.32;96.34
71621;BME280;59471;42.254;23.102;2023-02-04T12:26:59;95418.59;;;3.24;95.62
71621;BME280;59471;42.254;23.102;2023-02-04T12:29:25;95413.44;;;3.15;95.52
71621;BME280;59471;42.254;23.102;2023-02-04T12:31:50;95418.09;;;3.11;97.43
71621;BME280;59471;42.254;23.102;2023-02-04T12:34:16;95412.88;;;3.21;96.19
71621;BME280;59471;42.254;23.102;2023-02-04T12:36:42;95413.44;;;3.15;96.33
71621;BME280;59471;42.254;23.102;2023-02-04T12:39:08;95412.81;;;3.40;95.43
71621;BME280;59471;42.254;23.102;2023-02-04T12:41:35;95413.69;;;3.31;94.80
71621;BME280;59471;42.254;23.102;2023-02-04T12:44:01;95404.47;;;3.46;93.34
71621;BME280;59471;42.254;23.102;2023-02-04T12:46:28;95406.28;;;3.36;93.73
71621;BME280;59471;42.254;23.102;2023-02-04T12:48:54;95410.53;;;3.00;96.40
71621;BME280;59471;42.254;23.102;2023-02-04T12:51:20;95419.72;;;3.22;95.10
71621;BME280;59471;42.254;23.102;2023-02-04T12:53:47;95421.72;;;3.28;94.32
71621;BME280;59471;42.254;23.102;2023-02-04T12:56:13;95415.66;;;3.10;96.00
71621;BME280;59471;42.254;23.102;2023-02-04T12:58:39;95415.19;;;3.24;95.96
71621;BME280;59471;42.254;23.102;2023-02-04T13:01:04;95414.56;;;3.12;96.24
71621;BME280;59471;42.254;23.102;2023-02-04T13:03:31;95420.28;;;3.16;95.80
71621;BME280;59471;42.254;23.102;2023-02-04T13:05:58;95415.75;;;2.90;97.02
71621;BME280;59471;42.254;23.102;2023-02-04T13:08:24;95426.09;;;2.90;98.09
71621;BME280;59471;42.254;23.102;2023-02-04T13:10:49;95411.66;;;2.88;98.96
71621;BME280;59471;42.254;23.102;2023-02-04T13:13:17;95412.41;;;3.08;97.98
71621;BME280;59471;42.254;23.102;2023-02-04T13:15:44;95423.47;;;3.28;97.28
71621;BME280;59471;42.254;23.102;2023-02-04T13:18:09;95426.88;;;3.00;96.96
71621;BME280;59471;42.254;23.102;2023-02-04T13:20:35;95432.66;;;2.75;97.49